createdAt,value
2023-04-15T00:01:49.259Z,5.47
2023-04-15T00:04:16.846Z,4.60
2023-04-15T00:06:43.901Z,5.47
2023-04-15T00:09:11.445Z,4.07
2023-04-15T00:11:38.362Z,3.92
2023-04-15T00:14:06.288Z,4.68
2023-04-15T00:16:33.365Z,3.75
2023-04-15T00:19:01.069Z,4.07
2023-04-15T00:21:29.130Z,4.55
2023-04-15T00:23:56.742Z,5.75
2023-04-15T00:26:23.623Z,4.20
2023-04-15T00:28:51.806Z,3.50
2023-04-15T00:31:19.320Z,3.60
2023-04-15T00:33:47.132Z,4.47
2023-04-15T00:36:14.654Z,4.70
2023-04-15T00:38:42.238Z,4.18
2023-04-15T00:41:10.458Z,5.53
2023-04-15T00:43:38.252Z,4.70
2023-04-15T00:46:06.122Z,3.97
2023-04-15T00:48:33.546Z,3.90
2023-04-15T00:51:01.014Z,3.92
2023-04-15T00:53:28.249Z,5.78
2023-04-15T00:55:56.058Z,6.00
2023-04-15T00:58:23.516Z,5.13
2023-04-15T01:00:54.258Z,5.07
2023-04-15T01:03:21.722Z,4.40
2023-04-15T01:05:49.420Z,4.43
2023-04-15T01:08:16.613Z,4.88
2023-04-15T01:10:44.059Z,5.32
2023-04-15T01:13:11.525Z,5.30
2023-04-15T01:15:40.235Z,4.22
2023-04-15T01:18:07.643Z,5.47
2023-04-15T01:20:34.701Z,5.40
2023-04-15T01:23:02.171Z,4.85
2023-04-15T01:25:33.531Z,4.32
2023-04-15T01:28:00.880Z,5.18
2023-04-15T01:30:28.002Z,5.63
2023-04-15T01:32:55.280Z,4.20
2023-04-15T01:35:22.667Z,5.97
2023-04-15T01:37:52.593Z,4.75
2023-04-15T01:40:19.525Z,4.38
2023-04-15T01:42:47.351Z,5.90
2023-04-15T01:45:15.660Z,4.85
2023-04-15T01:47:42.825Z,4.88
2023-04-15T01:50:10.773Z,4.55
2023-04-15T01:52:38.392Z,5.55
2023-04-15T01:55:06.317Z,4.95
2023-04-15T01:57:34.004Z,6.70
2023-04-15T02:00:01.087Z,4.38
2023-04-15T02:02:29.346Z,5.70
2023-04-15T02:04:56.743Z,4.88
2023-04-15T02:07:24.317Z,6.45
2023-04-15T02:09:51.388Z,6.45
2023-04-15T02:12:18.612Z,5.70
2023-04-15T02:14:45.803Z,7.05
2023-04-15T02:17:13.001Z,5.53
2023-04-15T02:19:40.561Z,6.07
2023-04-15T02:22:09.407Z,6.28
2023-04-15T02:24:36.355Z,4.22
2023-04-15T02:27:04.027Z,4.43
2023-04-15T02:29:32.487Z,5.00
2023-04-15T02:32:01.748Z,6.20
2023-04-15T02:34:28.841Z,5.38
2023-04-15T02:36:57.998Z,4.53
2023-04-15T02:39:25.550Z,5.55
2023-04-15T02:41:52.791Z,5.32
2023-04-15T02:44:20.676Z,7.70
2023-04-15T02:46:52.620Z,5.45
2023-04-15T02:49:21.804Z,5.63
2023-04-15T02:51:49.753Z,6.10
2023-04-15T02:54:20.703Z,5.80
2023-04-15T02:56:48.252Z,4.15
2023-04-15T02:59:15.178Z,4.65
2023-04-15T03:01:42.661Z,5.68
2023-04-15T03:04:09.846Z,4.45
2023-04-15T03:06:37.320Z,7.80
2023-04-15T03:09:04.255Z,6.43
2023-04-15T03:11:37.053Z,4.05
2023-04-15T03:14:04.558Z,3.50
2023-04-15T03:16:36.017Z,5.15
2023-04-15T03:19:03.358Z,4.95
2023-04-15T03:21:33.229Z,3.67
2023-04-15T03:24:00.893Z,6.00
2023-04-15T03:26:29.835Z,5.45
2023-04-15T03:29:00.985Z,4.13
2023-04-15T03:31:29.103Z,4.88
2023-04-15T03:33:56.128Z,4.65
2023-04-15T03:36:24.112Z,5.50
2023-04-15T03:38:51.053Z,6.50
2023-04-15T03:41:18.303Z,4.45
2023-04-15T03:43:45.162Z,4.18
2023-04-15T03:46:12.366Z,5.30
2023-04-15T03:48:39.296Z,4.22
2023-04-15T03:51:06.642Z,5.72
2023-04-15T03:53:33.534Z,5.28
2023-04-15T03:56:00.908Z,6.78
2023-04-15T03:58:27.903Z,3.70
2023-04-15T04:00:55.124Z,4.90
2023-04-15T04:03:22.447Z,6.50
2023-04-15T04:05:49.928Z,4.55
2023-04-15T04:08:16.939Z,6.90
2023-04-15T04:10:44.127Z,5.07
2023-04-15T04:13:11.226Z,5.00
2023-04-15T04:15:38.476Z,4.47
2023-04-15T04:18:05.414Z,5.40
2023-04-15T04:20:32.842Z,5.43
2023-04-15T04:22:59.781Z,4.47
2023-04-15T04:25:27.364Z,7.03
2023-04-15T04:27:54.259Z,4.18
2023-04-15T04:30:21.507Z,5.40
2023-04-15T04:32:50.026Z,5.28
2023-04-15T04:35:17.506Z,6.00
2023-04-15T04:37:44.428Z,3.80
2023-04-15T04:40:12.245Z,4.95
2023-04-15T04:42:40.169Z,5.22
2023-04-15T04:45:08.683Z,3.75
2023-04-15T04:47:35.833Z,4.78
2023-04-15T04:50:03.652Z,4.53
2023-04-15T04:52:30.648Z,5.55
2023-04-15T04:54:57.830Z,3.88
2023-04-15T04:57:24.774Z,3.92
2023-04-15T04:59:52.239Z,3.78
2023-04-15T05:02:19.431Z,4.68
2023-04-15T05:04:46.718Z,4.10
2023-04-15T05:07:13.684Z,2.97
2023-04-15T05:09:40.981Z,3.90
2023-04-15T05:12:09.369Z,3.83
2023-04-15T05:14:36.775Z,3.65
2023-04-15T05:17:03.678Z,5.53
2023-04-15T05:19:30.908Z,2.28
2023-04-15T05:21:58.001Z,4.38
2023-04-15T05:24:25.419Z,3.80
2023-04-15T05:26:52.390Z,4.18
2023-04-15T05:29:19.610Z,4.05
2023-04-15T05:31:46.643Z,4.22
2023-04-15T05:34:15.865Z,4.15
2023-04-15T05:36:43.096Z,3.75
2023-04-15T05:39:10.661Z,4.07
2023-04-15T05:41:38.294Z,3.45
2023-04-15T05:44:06.234Z,3.95
2023-04-15T05:46:33.150Z,2.80
2023-04-15T05:49:00.774Z,3.67
2023-04-15T05:51:28.175Z,3.75
2023-04-15T05:53:55.430Z,3.10
2023-04-15T05:56:22.435Z,2.85
2023-04-15T05:58:50.549Z,2.95
2023-04-15T06:01:18.386Z,2.58
2023-04-15T06:03:45.670Z,3.08
2023-04-15T06:06:13.503Z,4.13
2023-04-15T06:08:41.081Z,3.30
2023-04-15T06:11:08.049Z,2.72
2023-04-15T06:13:35.430Z,2.83
2023-04-15T06:16:02.371Z,2.90
2023-04-15T06:18:30.064Z,3.72
2023-04-15T06:20:57.352Z,3.38
2023-04-15T06:23:26.329Z,2.30
2023-04-15T06:25:53.894Z,2.03
2023-04-15T06:28:21.600Z,3.03
2023-04-15T06:30:48.597Z,2.50
2023-04-15T06:33:15.989Z,2.42
2023-04-15T06:35:43.160Z,3.33
2023-04-15T06:38:10.638Z,2.58
2023-04-15T06:40:37.665Z,3.75
2023-04-15T06:43:05.006Z,3.00
2023-04-15T06:45:32.524Z,2.88
2023-04-15T06:47:59.859Z,2.78
2023-04-15T06:50:27.550Z,4.85
2023-04-15T06:52:55.775Z,2.70
2023-04-15T06:55:23.054Z,2.53
2023-04-15T06:57:50.349Z,2.35
2023-04-15T07:00:17.660Z,2.10
2023-04-15T07:02:45.428Z,2.83
2023-04-15T07:05:12.964Z,2.47
2023-04-15T07:07:40.579Z,2.33
2023-04-15T07:10:08.151Z,3.75
2023-04-15T07:12:35.924Z,3.53
2023-04-15T07:15:03.535Z,4.53
2023-04-15T07:17:31.065Z,3.90
2023-04-15T07:19:58.200Z,1.63
2023-04-15T07:22:26.303Z,1.60
2023-04-15T07:24:53.230Z,2.70
2023-04-15T07:27:21.011Z,2.22
2023-04-15T07:29:48.704Z,1.85
2023-04-15T07:32:16.500Z,3.97
2023-04-15T07:34:44.402Z,3.10
2023-04-15T07:37:11.701Z,2.63
2023-04-15T07:39:38.621Z,1.30
2023-04-15T07:42:05.784Z,1.45
2023-04-15T07:44:32.785Z,2.28
2023-04-15T07:47:00.118Z,2.40
2023-04-15T07:49:27.060Z,1.80
2023-04-15T07:51:54.976Z,4.32
2023-04-15T07:54:21.912Z,2.25
2023-04-15T07:56:49.025Z,2.05
2023-04-15T07:59:17.950Z,2.20
2023-04-15T08:01:45.117Z,3.35
2023-04-15T08:04:12.321Z,2.42
2023-04-15T08:06:40.096Z,2.47
2023-04-15T08:09:08.226Z,2.95
2023-04-15T08:11:36.524Z,4.78
2023-04-15T08:14:03.433Z,3.58
2023-04-15T08:16:30.813Z,1.20
2023-04-15T08:18:57.931Z,1.88
2023-04-15T08:21:25.531Z,12.50
2023-04-15T08:23:53.378Z,2.47
2023-04-15T08:26:21.347Z,2.63
2023-04-15T08:28:49.257Z,2.28
2023-04-15T08:31:17.384Z,3.85
2023-04-15T08:33:44.443Z,2.80
2023-04-15T08:36:11.561Z,2.92
2023-04-15T08:38:38.502Z,2.58
2023-04-15T08:41:24.341Z,2.88
2023-04-15T08:43:59.400Z,5.25
2023-04-15T08:46:26.794Z,8.68
2023-04-15T08:48:57.296Z,25.10
2023-04-15T08:51:25.114Z,29.98
2023-04-15T08:53:52.652Z,18.92
2023-04-15T08:56:20.285Z,10.73
2023-04-15T08:58:47.905Z,20.83
2023-04-15T09:01:15.337Z,26.55
2023-04-15T09:03:42.543Z,16.67
2023-04-15T09:06:10.063Z,18.75
2023-04-15T09:08:36.965Z,32.65
2023-04-15T09:11:04.215Z,3.88
2023-04-15T09:13:31.757Z,5.03
2023-04-15T09:15:58.939Z,25.27
2023-04-15T09:18:34.079Z,31.00
2023-04-15T09:21:15.086Z,35.10
2023-04-15T09:23:54.957Z,65.47
2023-04-15T09:26:40.588Z,42.53
2023-04-15T09:29:09.660Z,51.55
2023-04-15T09:31:37.831Z,60.17
2023-04-15T09:34:05.457Z,53.40
2023-04-15T09:37:02.201Z,44.78
2023-04-15T09:39:45.747Z,9.57
2023-04-15T09:42:13.034Z,18.80
2023-04-15T09:44:40.044Z,10.73
2023-04-15T09:47:07.509Z,17.83
2023-04-15T09:49:34.526Z,26.67
2023-04-15T09:52:06.106Z,20.83
2023-04-15T09:54:35.491Z,11.65
2023-04-15T09:57:07.372Z,12.52
2023-04-15T09:59:34.718Z,12.82
2023-04-15T10:02:05.430Z,5.30
2023-04-15T10:04:36.754Z,4.57
2023-04-15T10:07:05.330Z,3.05
2023-04-15T10:09:34.202Z,5.82
2023-04-15T10:12:04.285Z,4.70
2023-04-15T10:14:35.135Z,2.88
2023-04-15T10:17:05.695Z,3.03
2023-04-15T10:19:34.426Z,4.65
2023-04-15T10:22:02.183Z,2.33
2023-04-15T10:24:32.145Z,1.02
2023-04-15T10:27:00.572Z,1.35
2023-04-15T10:29:27.786Z,2.78
2023-04-15T10:31:59.372Z,3.03
2023-04-15T10:34:26.913Z,2.10
2023-04-15T10:37:06.175Z,2.05
2023-04-15T10:39:33.324Z,1.38
2023-04-15T10:42:11.383Z,1.77
2023-04-15T10:44:39.897Z,3.38
2023-04-15T10:47:19.156Z,1.38
2023-04-15T10:50:13.700Z,3.67
2023-04-15T10:52:44.073Z,2.28
2023-04-15T10:55:10.981Z,1.83
2023-04-15T10:57:40.073Z,1.55
2023-04-15T11:00:17.882Z,3.55
2023-04-15T11:02:48.037Z,4.63
2023-04-15T11:05:16.814Z,9.50
2023-04-15T11:07:44.787Z,12.90
2023-04-15T11:10:31.907Z,13.57
2023-04-15T11:12:59.776Z,20.10
2023-04-15T11:15:32.063Z,13.77
2023-04-15T11:18:08.752Z,7.65
2023-04-15T11:20:36.171Z,6.32
2023-04-15T11:23:14.442Z,8.70
2023-04-15T11:25:43.651Z,4.25
2023-04-15T11:28:12.559Z,8.18
2023-04-15T11:30:40.584Z,7.05
2023-04-15T11:33:09.630Z,11.70
2023-04-15T11:35:36.943Z,8.77
2023-04-15T11:38:05.361Z,6.95
2023-04-15T11:40:35.853Z,1.55
2023-04-15T11:43:12.977Z,15.75
2023-04-15T11:45:54.223Z,14.10
2023-04-15T11:48:29.732Z,9.95
2023-04-15T11:51:04.893Z,11.80
2023-04-15T11:53:48.058Z,2.83
2023-04-15T11:56:22.801Z,11.60
2023-04-15T11:58:56.855Z,9.43
2023-04-15T12:01:39.428Z,12.35
2023-04-15T12:04:14.354Z,16.33
2023-04-15T12:06:41.691Z,26.00
2023-04-15T12:09:16.699Z,23.45
2023-04-15T12:11:48.355Z,6.50
2023-04-15T12:14:15.706Z,23.42
2023-04-15T12:16:48.597Z,32.13
2023-04-15T12:19:43.274Z,10.27
2023-04-15T12:22:14.128Z,23.15
2023-04-15T12:24:44.086Z,8.60
2023-04-15T12:27:12.124Z,18.50
2023-04-15T12:29:40.689Z,15.82
2023-04-15T12:32:08.975Z,13.75
2023-04-15T12:34:38.710Z,10.52
2023-04-15T12:37:07.870Z,10.10
2023-04-15T12:39:36.572Z,3.38
2023-04-15T12:42:04.473Z,7.15
2023-04-15T12:44:33.750Z,7.43
2023-04-15T12:47:00.751Z,5.72
2023-04-15T12:49:28.470Z,4.18
2023-04-15T12:51:57.414Z,3.28
2023-04-15T12:54:24.749Z,5.28
2023-04-15T12:56:52.009Z,4.63
2023-04-15T12:59:19.218Z,4.32
2023-04-15T13:01:47.425Z,7.38
2023-04-15T13:04:15.553Z,4.78
2023-04-15T13:06:42.814Z,6.03
2023-04-15T13:09:10.124Z,7.47
2023-04-15T13:11:37.140Z,9.98
2023-04-15T13:14:07.140Z,5.30
2023-04-15T13:16:34.941Z,3.40
2023-04-15T13:19:03.648Z,3.42
2023-04-15T13:21:32.285Z,5.05
2023-04-15T13:23:59.681Z,5.40
2023-04-15T13:26:26.632Z,3.72
2023-04-15T13:28:53.747Z,3.45
2023-04-15T13:31:21.111Z,5.57
2023-04-15T13:33:48.397Z,4.43
2023-04-15T13:36:15.519Z,1.70
2023-04-15T13:38:42.829Z,0.90
2023-04-15T13:41:11.272Z,0.80
2023-04-15T13:43:38.452Z,1.48
2023-04-15T13:46:05.596Z,1.15
2023-04-15T13:48:32.932Z,1.52
2023-04-15T13:50:59.842Z,1.70
2023-04-15T13:53:37.987Z,2.45
2023-04-15T13:56:09.249Z,1.80
2023-04-15T13:58:37.288Z,2.83
2023-04-15T14:01:06.084Z,2.45
2023-04-15T14:03:34.811Z,2.90
2023-04-15T14:06:02.267Z,0.70
2023-04-15T14:08:30.146Z,1.08
2023-04-15T14:10:57.962Z,0.93
2023-04-15T14:13:25.586Z,1.00
2023-04-15T14:15:52.699Z,0.55
2023-04-15T14:18:20.297Z,0.77
2023-04-15T14:20:47.305Z,0.77
2023-04-15T14:23:14.761Z,1.10
2023-04-15T14:25:41.782Z,0.82
2023-04-15T14:28:09.048Z,1.25
2023-04-15T14:30:36.055Z,0.80
2023-04-15T14:33:03.861Z,0.82
2023-04-15T14:35:31.240Z,0.80
2023-04-15T14:37:58.524Z,1.45
2023-04-15T14:40:25.756Z,0.70
2023-04-15T14:42:53.063Z,0.50
2023-04-15T14:45:19.995Z,1.23
2023-04-15T14:47:47.660Z,0.63
2023-04-15T14:50:14.557Z,2.00
2023-04-15T14:52:41.881Z,1.15
2023-04-15T14:55:12.690Z,0.30
2023-04-15T14:57:41.525Z,1.10
2023-04-15T15:00:10.581Z,0.82
2023-04-15T15:02:40.483Z,0.88
2023-04-15T15:05:09.592Z,0.65
2023-04-15T15:07:38.230Z,3.15
2023-04-15T15:10:06.202Z,3.72
2023-04-15T15:12:34.289Z,2.08
2023-04-15T15:15:03.007Z,0.50
2023-04-15T15:17:32.446Z,1.02
2023-04-15T15:20:00.651Z,3.45
2023-04-15T15:22:27.897Z,2.50
2023-04-15T15:24:54.957Z,0.75
2023-04-15T15:27:22.125Z,1.40
2023-04-15T15:29:49.150Z,0.50
2023-04-15T15:32:16.786Z,0.50
2023-04-15T15:34:43.757Z,1.88
2023-04-15T15:37:11.033Z,0.40
2023-04-15T15:39:38.055Z,0.50
2023-04-15T15:42:07.379Z,1.38
2023-04-15T15:44:36.318Z,0.35
2023-04-15T15:47:03.886Z,0.55
2023-04-15T15:49:31.163Z,1.73
2023-04-15T15:51:58.475Z,3.58
2023-04-15T15:54:25.448Z,2.95
2023-04-15T15:56:52.672Z,4.18
2023-04-15T15:59:19.759Z,9.05
2023-04-15T16:01:48.257Z,19.48
2023-04-15T16:04:16.709Z,3.97
2023-04-15T16:06:46.699Z,4.07
2023-04-15T16:09:13.905Z,5.00
2023-04-15T16:11:41.650Z,5.32
2023-04-15T16:14:08.618Z,84.55
2023-04-15T16:16:36.041Z,58.28
2023-04-15T16:19:03.413Z,36.33
2023-04-15T16:21:31.696Z,9.43
2023-04-15T16:23:58.753Z,22.00
2023-04-15T16:26:26.045Z,20.23
2023-04-15T16:28:53.070Z,31.65
2023-04-15T16:31:20.325Z,51.30
2023-04-15T16:33:47.281Z,23.85
2023-04-15T16:36:14.574Z,46.53
2023-04-15T16:38:41.505Z,18.52
2023-04-15T16:41:08.820Z,24.88
2023-04-15T16:43:35.989Z,14.48
2023-04-15T16:46:03.278Z,17.35
2023-04-15T16:48:30.258Z,18.48
2023-04-15T16:50:57.791Z,21.83
2023-04-15T16:53:24.898Z,8.93
2023-04-15T16:55:52.180Z,2.88
2023-04-15T16:58:19.203Z,10.35
2023-04-15T17:00:46.561Z,6.05
2023-04-15T17:03:13.764Z,5.75
2023-04-15T17:05:42.394Z,2.13
2023-04-15T17:08:09.395Z,1.73
2023-04-15T17:10:36.700Z,1.85
2023-04-15T17:13:03.634Z,7.25
2023-04-15T17:15:31.195Z,12.05
2023-04-15T17:17:58.158Z,14.48
2023-04-15T17:20:26.592Z,3.97
2023-04-15T17:22:53.769Z,7.75
2023-04-15T17:25:21.268Z,11.20
2023-04-15T17:27:48.200Z,11.55
2023-04-15T17:30:15.751Z,13.93
2023-04-15T17:32:42.757Z,18.35
2023-04-15T17:35:10.291Z,12.98
2023-04-15T17:37:37.765Z,11.18
2023-04-15T17:40:08.054Z,6.68
2023-04-15T17:42:35.689Z,1.23
2023-04-15T17:45:03.331Z,4.45
2023-04-15T17:47:30.333Z,2.85
2023-04-15T17:49:57.893Z,2.72
2023-04-15T17:52:24.948Z,4.53
2023-04-15T17:54:52.482Z,2.83
2023-04-15T17:57:19.472Z,1.77
2023-04-15T17:59:47.840Z,3.50
2023-04-15T18:02:15.186Z,2.40
2023-04-15T18:04:42.778Z,1.73
2023-04-15T18:07:09.808Z,2.15
2023-04-15T18:09:37.373Z,1.55
2023-04-15T18:12:04.797Z,1.67
2023-04-15T18:14:34.839Z,2.55
2023-04-15T18:17:02.657Z,2.83
2023-04-15T18:19:30.690Z,0.68
2023-04-15T18:22:00.088Z,0.90
2023-04-15T18:24:28.047Z,1.17
2023-04-15T18:26:55.000Z,0.90
2023-04-15T18:29:22.422Z,2.13
2023-04-15T18:31:49.484Z,1.08
2023-04-15T18:34:16.868Z,3.17
2023-04-15T18:36:44.035Z,1.85
2023-04-15T18:39:11.269Z,1.30
2023-04-15T18:41:38.336Z,1.05
2023-04-15T18:44:05.184Z,0.88
2023-04-15T18:46:32.474Z,0.82
2023-04-15T18:48:59.451Z,2.72
2023-04-15T18:51:27.469Z,1.42
2023-04-15T18:53:54.437Z,1.60
2023-04-15T18:56:21.747Z,1.77
2023-04-15T18:59:26.002Z,1.83
2023-04-15T19:01:36.077Z,1.67
2023-04-15T19:04:03.357Z,1.15
2023-04-15T19:06:31.024Z,0.73
2023-04-15T19:08:58.656Z,2.45
2023-04-15T19:11:26.409Z,3.63
2023-04-15T19:13:54.454Z,2.00
2023-04-15T19:16:21.744Z,0.80
2023-04-15T19:18:48.814Z,0.43
2023-04-15T19:21:16.069Z,0.65
2023-04-15T19:23:43.211Z,0.70
2023-04-15T19:26:11.776Z,1.20
2023-04-15T19:28:39.080Z,1.92
2023-04-15T19:31:06.820Z,0.73
2023-04-15T19:33:34.142Z,1.10
2023-04-15T19:36:03.367Z,1.95
2023-04-15T19:38:31.121Z,2.78
2023-04-15T19:40:59.009Z,1.52
2023-04-15T19:43:26.126Z,1.67
2023-04-15T19:45:54.735Z,0.90
2023-04-15T19:48:22.905Z,3.22
2023-04-15T19:50:50.561Z,1.00
2023-04-15T19:53:17.604Z,1.50
2023-04-15T19:55:44.869Z,1.42
2023-04-15T19:58:11.971Z,1.98
2023-04-15T20:00:39.268Z,1.77
2023-04-15T20:03:06.513Z,1.92
2023-04-15T20:05:34.015Z,1.00
2023-04-15T20:08:01.607Z,1.38
2023-04-15T20:10:29.757Z,1.55
2023-04-15T20:12:56.714Z,0.88
2023-04-15T20:15:24.246Z,2.50
2023-04-15T20:17:51.425Z,1.15
2023-04-15T20:20:18.890Z,1.60
2023-04-15T20:22:45.844Z,1.30
2023-04-15T20:25:13.502Z,1.15
2023-04-15T20:27:40.498Z,1.23
2023-04-15T20:30:08.495Z,3.47
2023-04-15T20:32:36.193Z,1.30
2023-04-15T20:35:04.826Z,1.90
2023-04-15T20:37:33.280Z,1.45
2023-04-15T20:40:01.352Z,2.17
2023-04-15T20:42:28.661Z,1.25
2023-04-15T20:44:55.918Z,1.20
2023-04-15T20:47:23.016Z,2.13
2023-04-15T20:49:50.398Z,2.25
2023-04-15T20:52:17.270Z,4.57
2023-04-15T20:54:44.393Z,3.20
2023-04-15T20:57:11.311Z,2.53
2023-04-15T20:59:38.558Z,1.75
2023-04-15T21:02:05.702Z,3.22
2023-04-15T21:04:33.122Z,3.30
2023-04-15T21:07:00.107Z,5.32
2023-04-15T21:09:27.319Z,6.47
2023-04-15T21:12:01.171Z,2.53
2023-04-15T21:14:29.373Z,3.45
2023-04-15T21:16:59.573Z,3.25
2023-04-15T21:19:26.836Z,2.75
2023-04-15T21:21:53.823Z,1.65
2023-04-15T21:24:21.074Z,2.42
2023-04-15T21:26:47.956Z,3.05
2023-04-15T21:29:15.411Z,2.75
2023-04-15T21:31:42.370Z,1.42
2023-04-15T21:34:10.292Z,2.67
2023-04-15T21:36:37.769Z,3.92
2023-04-15T21:39:05.770Z,3.53
2023-04-15T21:41:32.958Z,4.90
2023-04-15T21:44:00.343Z,3.15
2023-04-15T21:46:32.907Z,2.35
2023-04-15T21:49:02.342Z,2.50
2023-04-15T21:51:29.138Z,1.90
2023-04-15T21:53:56.475Z,2.35
2023-04-15T21:56:24.684Z,3.13
2023-04-15T21:58:59.594Z,2.47
2023-04-15T22:01:26.939Z,2.63
2023-04-15T22:03:54.590Z,3.38
2023-04-15T22:06:21.774Z,4.95
2023-04-15T22:08:56.882Z,4.28
2023-04-15T22:11:28.687Z,2.42
2023-04-15T22:13:57.349Z,2.47
2023-04-15T22:16:25.846Z,1.63
2023-04-15T22:18:53.757Z,4.97
2023-04-15T22:21:20.730Z,1.60
2023-04-15T22:23:49.313Z,2.30
2023-04-15T22:26:16.327Z,1.65
2023-04-15T22:28:43.597Z,1.63
2023-04-15T22:31:10.726Z,1.30
2023-04-15T22:33:38.840Z,1.35
2023-04-15T22:36:06.307Z,1.55
2023-04-15T22:38:33.720Z,1.92
2023-04-15T22:41:00.753Z,5.20
2023-04-15T22:43:28.041Z,2.60
2023-04-15T22:45:55.413Z,1.77
2023-04-15T22:48:23.209Z,2.22
2023-04-15T22:50:50.164Z,2.72
2023-04-15T22:53:17.967Z,3.10
2023-04-15T22:55:46.778Z,1.55
2023-04-15T22:58:15.014Z,2.40
2023-04-15T23:00:41.973Z,1.42
2023-04-15T23:03:09.499Z,2.10
2023-04-15T23:05:37.080Z,4.60
2023-04-15T23:08:04.250Z,2.22
2023-04-15T23:10:31.338Z,3.05
2023-04-15T23:12:58.595Z,2.97
2023-04-15T23:15:25.780Z,3.42
2023-04-15T23:17:53.118Z,3.22
2023-04-15T23:20:20.287Z,2.97
2023-04-15T23:22:47.496Z,3.38
2023-04-15T23:25:14.526Z,3.60
2023-04-15T23:27:41.725Z,2.25
2023-04-15T23:30:08.924Z,2.40
2023-04-15T23:32:36.106Z,4.40
2023-04-15T23:35:03.539Z,2.15
2023-04-15T23:37:33.962Z,1.52
2023-04-15T23:40:01.031Z,2.80
2023-04-15T23:42:28.518Z,2.08
2023-04-15T23:44:55.471Z,2.33
2023-04-15T23:47:23.213Z,3.10
2023-04-15T23:49:50.066Z,1.48
2023-04-15T23:52:17.327Z,1.52
2023-04-15T23:54:44.294Z,1.58
2023-04-15T23:57:11.519Z,1.52
2023-04-15T23:59:38.358Z,2.45
